AFR7525 LFRB-LFPG
Flight info
| Callsign | AFR7525 |
|---|---|
| Flight time | 0h 53m |
| Altitude | 32000 |
| Route | SOMEN DCT JSY UY111 INGOR/N0375F280 UM25 LUKIP |
| Aircraft | A20N/M-SDE2E3FGHIRWXY/LB1 |
Departure
| Time | 2026-05-05 13:02 |
|---|---|
| Airport | Brest Bretagne airport (LFRB) |
Arrival
| Time | 2026-05-05 13:56 |
|---|---|
| Airport | Charles de Gaulle International Airport (LFPG) |
| Time | Latitude | Longitude | Altitude | Speed | Heading |
|---|---|---|---|---|---|
| 2026-05-05 12:37 | 48.44410 | -4.42101 | 255 ft | 0 kts | 191° |
| 2026-05-05 12:54 | 48.44415 | -4.42099 | 172 ft | 4 kts | 188° |
| 2026-05-05 12:54 | 48.44441 | -4.42100 | 147 ft | 4 kts | 155° |
| 2026-05-05 12:55 | 48.44462 | -4.42124 | 253 ft | 4 kts | 121° |
| 2026-05-05 12:55 | 48.44469 | -4.42158 | 295 ft | 4 kts | 65° |
| 2026-05-05 12:55 | 48.44466 | -4.42167 | 310 ft | 1 kts | 45° |
| 2026-05-05 12:58 | 48.44469 | -4.42162 | 310 ft | 1 kts | 45° |
| 2026-05-05 12:58 | 48.44482 | -4.42143 | 272 ft | 7 kts | 45° |
| 2026-05-05 12:58 | 48.44569 | -4.42107 | 240 ft | 16 kts | 347° |
| 2026-05-05 12:59 | 48.44634 | -4.42144 | 268 ft | 1 kts | 334° |
| 2026-05-05 12:59 | 48.44646 | -4.42153 | 282 ft | 4 kts | 334° |
| 2026-05-05 12:59 | 48.44665 | -4.42167 | 311 ft | 3 kts | 334° |
| 2026-05-05 13:00 | 48.44679 | -4.42350 | 307 ft | 33 kts | 250° |
| 2026-05-05 13:00 | 48.44611 | -4.42600 | 305 ft | 23 kts | 251° |
| 2026-05-05 13:01 | 48.44441 | -4.43359 | 304 ft | 29 kts | 254° |
| 2026-05-05 13:01 | 48.44382 | -4.43650 | 301 ft | 24 kts | 254° |
| 2026-05-05 13:01 | 48.44390 | -4.43789 | 299 ft | 1 kts | 251° |
| 2026-05-05 13:01 | 48.44378 | -4.43789 | 300 ft | 2 kts | 170° |
| 2026-05-05 13:02 | 48.44381 | -4.43639 | 301 ft | 41 kts | 63° |
| 2026-05-05 13:02 | 48.44569 | -4.42876 | 303 ft | 120 kts | 71° |
| 2026-05-05 13:02 | 48.44907 | -4.41339 | 331 ft | 185 kts | 70° |
| 2026-05-05 13:02 | 48.45697 | -4.39784 | 1177 ft | 184 kts | 39° |
| 2026-05-05 13:03 | 48.46725 | -4.38687 | 2438 ft | 182 kts | 33° |
| 2026-05-05 13:03 | 48.47856 | -4.37599 | 3244 ft | 204 kts | 33° |
| 2026-05-05 13:03 | 48.49123 | -4.36418 | 3979 ft | 225 kts | 31° |
| 2026-05-05 13:03 | 48.50626 | -4.35444 | 4705 ft | 247 kts | 17° |
| 2026-05-05 13:04 | 48.52380 | -4.35075 | 5563 ft | 259 kts | 3° |
| 2026-05-05 13:04 | 48.54188 | -4.35207 | 6666 ft | 261 kts | 356° |
| 2026-05-05 13:04 | 48.56002 | -4.35589 | 7752 ft | 265 kts | 354° |
| 2026-05-05 13:04 | 48.57839 | -4.36075 | 8786 ft | 271 kts | 354° |
| 2026-05-05 13:05 | 48.59723 | -4.36513 | 9753 ft | 275 kts | 3° |
| 2026-05-05 13:05 | 48.61634 | -4.36108 | 10517 ft | 286 kts | 24° |
| 2026-05-05 13:05 | 48.63402 | -4.34541 | 10850 ft | 308 kts | 47° |
| 2026-05-05 13:05 | 48.64726 | -4.31889 | 11229 ft | 325 kts | 68° |
| 2026-05-05 13:06 | 48.65610 | -4.28714 | 12009 ft | 331 kts | 75° |
| 2026-05-05 13:06 | 48.66384 | -4.25393 | 12803 ft | 338 kts | 76° |
| 2026-05-05 13:06 | 48.67183 | -4.22009 | 13540 ft | 346 kts | 75° |
| 2026-05-05 13:06 | 48.68046 | -4.18561 | 14233 ft | 355 kts | 74° |
| 2026-05-05 13:07 | 48.68964 | -4.15046 | 14905 ft | 364 kts | 73° |
| 2026-05-05 13:07 | 48.69921 | -4.11470 | 15638 ft | 369 kts | 73° |
| 2026-05-05 13:07 | 48.70888 | -4.07904 | 16533 ft | 368 kts | 73° |
| 2026-05-05 13:07 | 48.71860 | -4.04315 | 17436 ft | 368 kts | 73° |
| 2026-05-05 13:08 | 48.72826 | -4.00729 | 18268 ft | 368 kts | 73° |
| 2026-05-05 13:08 | 48.73792 | -3.97133 | 19064 ft | 369 kts | 73° |
| 2026-05-05 13:08 | 48.74759 | -3.93523 | 19821 ft | 371 kts | 72° |
| 2026-05-05 13:08 | 48.75654 | -3.90179 | 20459 ft | 373 kts | 72° |
| 2026-05-05 13:09 | 48.76640 | -3.86486 | 20900 ft | 383 kts | 72° |
| 2026-05-05 13:09 | 48.77645 | -3.82736 | 21469 ft | 387 kts | 72° |
| 2026-05-05 13:09 | 48.78660 | -3.78949 | 22111 ft | 389 kts | 72° |
| 2026-05-05 13:09 | 48.79680 | -3.75133 | 22715 ft | 393 kts | 72° |
| 2026-05-05 13:10 | 48.80714 | -3.71278 | 23304 ft | 395 kts | 72° |
| 2026-05-05 13:10 | 48.81751 | -3.67396 | 23883 ft | 398 kts | 72° |
| 2026-05-05 13:10 | 48.82791 | -3.63483 | 24419 ft | 401 kts | 72° |
| 2026-05-05 13:10 | 48.83834 | -3.59526 | 24957 ft | 404 kts | 72° |
| 2026-05-05 13:11 | 48.84880 | -3.55557 | 25484 ft | 407 kts | 73° |
| 2026-05-05 13:11 | 48.85923 | -3.51548 | 25979 ft | 409 kts | 73° |
| 2026-05-05 13:11 | 48.86601 | -3.48877 | 26292 ft | 411 kts | 74° |
| 2026-05-05 13:11 | 48.87623 | -3.44825 | 26730 ft | 414 kts | 74° |
| 2026-05-05 13:12 | 48.88658 | -3.40715 | 27171 ft | 417 kts | 74° |
| 2026-05-05 13:12 | 48.89697 | -3.36597 | 27601 ft | 419 kts | 75° |
| 2026-05-05 13:12 | 48.90746 | -3.32439 | 27971 ft | 423 kts | 75° |
| 2026-05-05 13:12 | 48.91804 | -3.28248 | 28360 ft | 425 kts | 75° |
| 2026-05-05 13:13 | 48.92863 | -3.24047 | 28720 ft | 428 kts | 75° |
| 2026-05-05 13:13 | 48.93931 | -3.19805 | 29064 ft | 431 kts | 75° |
| 2026-05-05 13:13 | 48.94998 | -3.15558 | 29378 ft | 434 kts | 75° |
| 2026-05-05 13:13 | 48.96076 | -3.11265 | 29698 ft | 436 kts | 76° |
| 2026-05-05 13:14 | 48.97160 | -3.06925 | 30012 ft | 439 kts | 76° |
| 2026-05-05 13:14 | 48.98247 | -3.02566 | 30324 ft | 442 kts | 76° |
| 2026-05-05 13:14 | 48.99324 | -2.98236 | 30641 ft | 444 kts | 76° |
| 2026-05-05 13:14 | 49.00432 | -2.93771 | 30971 ft | 446 kts | 76° |
| 2026-05-05 13:15 | 49.01531 | -2.89342 | 31337 ft | 447 kts | 75° |
| 2026-05-05 13:15 | 49.02627 | -2.84918 | 31740 ft | 446 kts | 75° |
| 2026-05-05 13:15 | 49.03703 | -2.80556 | 31926 ft | 444 kts | 75° |
| 2026-05-05 13:15 | 49.04788 | -2.76155 | 31967 ft | 443 kts | 75° |
| 2026-05-05 13:16 | 49.06954 | -2.67351 | 31967 ft | 443 kts | 75° |
| 2026-05-05 13:16 | 49.09124 | -2.58487 | 31966 ft | 443 kts | 76° |
| 2026-05-05 13:17 | 49.11258 | -2.49730 | 31967 ft | 443 kts | 76° |
| 2026-05-05 13:17 | 49.13402 | -2.40898 | 31966 ft | 443 kts | 76° |
| 2026-05-05 13:18 | 49.15535 | -2.32078 | 31965 ft | 443 kts | 76° |
| 2026-05-05 13:18 | 49.17665 | -2.23235 | 31964 ft | 443 kts | 76° |
| 2026-05-05 13:19 | 49.19796 | -2.14360 | 31945 ft | 449 kts | 77° |
| 2026-05-05 13:19 | 49.21829 | -2.05242 | 31936 ft | 452 kts | 82° |
| 2026-05-05 13:20 | 49.22876 | -1.95841 | 31938 ft | 448 kts | 89° |
| 2026-05-05 13:20 | 49.23695 | -1.86397 | 31939 ft | 448 kts | 89° |
| 2026-05-05 13:21 | 49.24508 | -1.77014 | 31936 ft | 448 kts | 89° |
| 2026-05-05 13:21 | 49.25312 | -1.67573 | 31941 ft | 448 kts | 89° |
| 2026-05-05 13:22 | 49.26107 | -1.58124 | 31934 ft | 447 kts | 89° |
| 2026-05-05 13:22 | 49.26893 | -1.48672 | 31936 ft | 447 kts | 89° |
| 2026-05-05 13:23 | 49.27670 | -1.39223 | 31940 ft | 447 kts | 90° |
| 2026-05-05 13:23 | 49.28435 | -1.29846 | 31939 ft | 447 kts | 90° |
| 2026-05-05 13:24 | 49.29198 | -1.20365 | 31967 ft | 451 kts | 90° |
| 2026-05-05 13:24 | 49.29959 | -1.10827 | 31967 ft | 450 kts | 90° |
| 2026-05-05 13:25 | 49.30710 | -1.01314 | 31968 ft | 450 kts | 90° |
| 2026-05-05 13:25 | 49.31450 | -0.91842 | 31967 ft | 450 kts | 90° |
| 2026-05-05 13:26 | 49.32187 | -0.82310 | 31964 ft | 450 kts | 90° |
| 2026-05-05 13:26 | 49.32916 | -0.72775 | 31963 ft | 450 kts | 90° |
| 2026-05-05 13:27 | 49.33637 | -0.63249 | 31963 ft | 450 kts | 90° |
| 2026-05-05 13:27 | 49.34350 | -0.53709 | 31964 ft | 450 kts | 90° |
| 2026-05-05 13:28 | 49.35055 | -0.44171 | 31964 ft | 450 kts | 91° |
| 2026-05-05 13:28 | 49.35750 | -0.34638 | 31828 ft | 450 kts | 91° |
| 2026-05-05 13:29 | 49.36095 | -0.29859 | 31584 ft | 453 kts | 91° |
| 2026-05-05 13:29 | 49.36291 | -0.25014 | 31349 ft | 456 kts | 97° |
| 2026-05-05 13:29 | 49.36153 | -0.20179 | 31098 ft | 452 kts | 103° |
| 2026-05-05 13:29 | 49.35835 | -0.15383 | 30828 ft | 451 kts | 103° |
| 2026-05-05 13:30 | 49.35531 | -0.10597 | 30584 ft | 452 kts | 103° |
| 2026-05-05 13:30 | 49.35231 | -0.05808 | 30338 ft | 450 kts | 103° |
| 2026-05-05 13:30 | 49.34931 | -0.01043 | 30087 ft | 448 kts | 103° |
| 2026-05-05 13:30 | 49.34640 | 0.03528 | 29857 ft | 446 kts | 103° |
| 2026-05-05 13:31 | 49.34336 | 0.08261 | 29610 ft | 445 kts | 103° |
| 2026-05-05 13:31 | 49.34034 | 0.12905 | 29368 ft | 442 kts | 103° |
| 2026-05-05 13:31 | 49.33726 | 0.17586 | 29064 ft | 441 kts | 103° |
| 2026-05-05 13:31 | 49.33408 | 0.22333 | 28407 ft | 441 kts | 103° |
| 2026-05-05 13:32 | 49.33104 | 0.26925 | 27814 ft | 436 kts | 103° |
| 2026-05-05 13:32 | 49.32801 | 0.31507 | 27202 ft | 430 kts | 102° |
| 2026-05-05 13:32 | 49.32500 | 0.36033 | 26596 ft | 423 kts | 102° |
| 2026-05-05 13:32 | 49.32201 | 0.40485 | 25999 ft | 417 kts | 102° |
| 2026-05-05 13:33 | 49.31905 | 0.44871 | 25409 ft | 410 kts | 102° |
| 2026-05-05 13:33 | 49.31616 | 0.49185 | 24824 ft | 405 kts | 101° |
| 2026-05-05 13:33 | 49.31527 | 0.53470 | 24255 ft | 400 kts | 97° |
| 2026-05-05 13:33 | 49.31487 | 0.57704 | 23681 ft | 394 kts | 97° |
| 2026-05-05 13:34 | 49.31446 | 0.61880 | 23120 ft | 389 kts | 97° |
| 2026-05-05 13:34 | 49.31403 | 0.65994 | 22555 ft | 383 kts | 97° |
| 2026-05-05 13:34 | 49.31356 | 0.70047 | 22003 ft | 378 kts | 97° |
| 2026-05-05 13:34 | 49.31308 | 0.74047 | 21454 ft | 373 kts | 97° |
| 2026-05-05 13:35 | 49.31259 | 0.77990 | 20907 ft | 368 kts | 97° |
| 2026-05-05 13:35 | 49.31210 | 0.81889 | 20370 ft | 363 kts | 96° |
| 2026-05-05 13:35 | 49.31160 | 0.85729 | 19835 ft | 359 kts | 96° |
| 2026-05-05 13:35 | 49.31109 | 0.89529 | 19304 ft | 354 kts | 96° |
| 2026-05-05 13:36 | 49.31058 | 0.93276 | 18785 ft | 350 kts | 96° |
| 2026-05-05 13:36 | 49.31007 | 0.96945 | 18265 ft | 346 kts | 96° |
| 2026-05-05 13:36 | 49.30955 | 1.00637 | 17745 ft | 342 kts | 96° |
| 2026-05-05 13:36 | 49.30902 | 1.04260 | 17226 ft | 338 kts | 96° |
| 2026-05-05 13:37 | 49.30848 | 1.07840 | 16728 ft | 334 kts | 96° |
| 2026-05-05 13:37 | 49.30793 | 1.11383 | 16222 ft | 331 kts | 96° |
| 2026-05-05 13:37 | 49.30739 | 1.14889 | 15726 ft | 327 kts | 96° |
| 2026-05-05 13:37 | 49.30678 | 1.18450 | 15229 ft | 348 kts | 96° |
| 2026-05-05 13:38 | 49.30611 | 1.22177 | 14979 ft | 349 kts | 96° |
| 2026-05-05 13:38 | 49.30547 | 1.25875 | 14915 ft | 347 kts | 96° |
| 2026-05-05 13:38 | 49.30482 | 1.29586 | 14912 ft | 350 kts | 96° |
| 2026-05-05 13:38 | 49.30415 | 1.33287 | 14912 ft | 349 kts | 96° |
| 2026-05-05 13:39 | 49.30349 | 1.37004 | 14888 ft | 350 kts | 96° |
| 2026-05-05 13:39 | 49.30254 | 1.40757 | 14883 ft | 354 kts | 97° |
| 2026-05-05 13:39 | 49.30138 | 1.44473 | 14884 ft | 352 kts | 97° |
| 2026-05-05 13:39 | 49.30023 | 1.48159 | 14884 ft | 337 kts | 97° |
| 2026-05-05 13:40 | 49.29921 | 1.51659 | 14802 ft | 321 kts | 97° |
| 2026-05-05 13:40 | 49.29828 | 1.54990 | 14674 ft | 307 kts | 97° |
| 2026-05-05 13:40 | 49.29735 | 1.58221 | 14326 ft | 301 kts | 97° |
| 2026-05-05 13:40 | 49.29640 | 1.61377 | 13871 ft | 300 kts | 97° |
| 2026-05-05 13:41 | 49.29542 | 1.64552 | 13445 ft | 297 kts | 97° |
| 2026-05-05 13:41 | 49.29444 | 1.67701 | 13018 ft | 295 kts | 97° |
| 2026-05-05 13:41 | 49.29343 | 1.70833 | 12575 ft | 294 kts | 97° |
| 2026-05-05 13:41 | 49.28955 | 1.73861 | 12211 ft | 288 kts | 116° |
| 2026-05-05 13:42 | 49.27844 | 1.76390 | 11861 ft | 291 kts | 140° |
| 2026-05-05 13:42 | 49.26142 | 1.77967 | 11457 ft | 292 kts | 165° |
| 2026-05-05 13:42 | 49.24118 | 1.78384 | 11031 ft | 291 kts | 181° |
| 2026-05-05 13:42 | 49.22127 | 1.78432 | 10632 ft | 288 kts | 181° |
| 2026-05-05 13:43 | 49.20135 | 1.78471 | 10232 ft | 285 kts | 181° |
| 2026-05-05 13:43 | 49.18136 | 1.78517 | 9829 ft | 282 kts | 181° |
| 2026-05-05 13:43 | 49.16180 | 1.78560 | 9430 ft | 280 kts | 181° |
| 2026-05-05 13:43 | 49.14244 | 1.78599 | 9032 ft | 277 kts | 181° |
| 2026-05-05 13:44 | 49.12320 | 1.78627 | 8636 ft | 275 kts | 181° |
| 2026-05-05 13:44 | 49.10422 | 1.78646 | 8230 ft | 270 kts | 181° |
| 2026-05-05 13:44 | 49.08571 | 1.78652 | 7819 ft | 261 kts | 181° |
| 2026-05-05 13:44 | 49.06801 | 1.78651 | 7437 ft | 254 kts | 181° |
| 2026-05-05 13:45 | 49.05054 | 1.78650 | 7029 ft | 248 kts | 181° |
| 2026-05-05 13:45 | 49.03346 | 1.78630 | 6629 ft | 242 kts | 181° |
| 2026-05-05 13:45 | 49.01670 | 1.78600 | 6233 ft | 242 kts | 181° |
| 2026-05-05 13:45 | 48.99957 | 1.78561 | 5826 ft | 241 kts | 181° |
| 2026-05-05 13:46 | 48.98300 | 1.78614 | 5394 ft | 236 kts | 168° |
| 2026-05-05 13:46 | 48.96881 | 1.79660 | 5018 ft | 229 kts | 137° |
| 2026-05-05 13:46 | 48.96074 | 1.81659 | 4634 ft | 222 kts | 104° |
| 2026-05-05 13:46 | 48.95914 | 1.83967 | 4289 ft | 220 kts | 96° |
| 2026-05-05 13:47 | 48.95833 | 1.86267 | 4073 ft | 217 kts | 95° |
| 2026-05-05 13:47 | 48.95750 | 1.88551 | 4033 ft | 219 kts | 95° |
| 2026-05-05 13:47 | 48.95665 | 1.90863 | 4027 ft | 219 kts | 95° |
| 2026-05-05 13:47 | 48.95751 | 1.93170 | 4039 ft | 221 kts | 82° |
| 2026-05-05 13:48 | 48.96027 | 1.95389 | 4031 ft | 218 kts | 85° |
| 2026-05-05 13:48 | 48.96191 | 1.97544 | 4028 ft | 218 kts | 88° |
| 2026-05-05 13:48 | 48.96309 | 1.99849 | 4028 ft | 219 kts | 89° |
| 2026-05-05 13:48 | 48.96425 | 2.02150 | 4029 ft | 218 kts | 89° |
| 2026-05-05 13:49 | 48.96549 | 2.04513 | 4033 ft | 233 kts | 89° |
| 2026-05-05 13:49 | 48.96677 | 2.06973 | 4031 ft | 231 kts | 89° |
| 2026-05-05 13:49 | 48.96806 | 2.09396 | 4029 ft | 229 kts | 89° |
| 2026-05-05 13:49 | 48.96935 | 2.11830 | 4029 ft | 231 kts | 89° |
| 2026-05-05 13:50 | 48.97063 | 2.14255 | 4029 ft | 231 kts | 89° |
| 2026-05-05 13:50 | 48.97190 | 2.16664 | 4035 ft | 231 kts | 89° |
| 2026-05-05 13:50 | 48.97319 | 2.19099 | 4030 ft | 230 kts | 89° |
| 2026-05-05 13:50 | 48.97447 | 2.21534 | 4027 ft | 231 kts | 89° |
| 2026-05-05 13:51 | 48.97575 | 2.23963 | 4030 ft | 231 kts | 89° |
| 2026-05-05 13:51 | 48.97703 | 2.26403 | 4028 ft | 230 kts | 89° |
| 2026-05-05 13:51 | 48.97829 | 2.28757 | 3891 ft | 215 kts | 89° |
| 2026-05-05 13:51 | 48.97950 | 2.30955 | 3620 ft | 207 kts | 89° |
| 2026-05-05 13:52 | 48.98064 | 2.33090 | 3340 ft | 195 kts | 89° |
| 2026-05-05 13:52 | 48.98171 | 2.35080 | 3084 ft | 185 kts | 89° |
| 2026-05-05 13:52 | 48.98271 | 2.37037 | 2849 ft | 187 kts | 89° |
| 2026-05-05 13:52 | 48.98375 | 2.39001 | 2607 ft | 184 kts | 89° |
| 2026-05-05 13:53 | 48.98477 | 2.40846 | 2388 ft | 168 kts | 89° |
| 2026-05-05 13:53 | 48.98568 | 2.42546 | 2159 ft | 154 kts | 87° |
| 2026-05-05 13:53 | 48.98651 | 2.44102 | 1957 ft | 142 kts | 86° |
| 2026-05-05 13:53 | 48.98724 | 2.45520 | 1784 ft | 127 kts | 86° |
| 2026-05-05 13:54 | 48.98789 | 2.46817 | 1637 ft | 130 kts | 86° |
| 2026-05-05 13:54 | 48.98868 | 2.48197 | 1443 ft | 128 kts | 86° |
| 2026-05-05 13:54 | 48.98931 | 2.49525 | 1295 ft | 132 kts | 88° |
| 2026-05-05 13:54 | 48.99008 | 2.50907 | 1094 ft | 126 kts | 86° |
| 2026-05-05 13:55 | 48.99077 | 2.52232 | 938 ft | 128 kts | 87° |
| 2026-05-05 13:55 | 48.99150 | 2.53588 | 763 ft | 126 kts | 88° |
| 2026-05-05 13:55 | 48.99218 | 2.54909 | 600 ft | 127 kts | 88° |
| 2026-05-05 13:55 | 48.99289 | 2.56258 | 430 ft | 127 kts | 88° |
| 2026-05-05 13:56 | 48.99349 | 2.57511 | 353 ft | 114 kts | 89° |
| 2026-05-05 13:56 | 48.99391 | 2.58395 | 355 ft | 55 kts | 74° |
| 2026-05-05 13:56 | 48.99500 | 2.58774 | 358 ft | 18 kts | 66° |
| 2026-05-05 13:56 | 48.99546 | 2.58936 | 355 ft | 16 kts | 67° |
| 2026-05-05 13:57 | 48.99588 | 2.59085 | 358 ft | 14 kts | 67° |
| 2026-05-05 13:57 | 48.99622 | 2.59216 | 358 ft | 13 kts | 76° |
| 2026-05-05 13:57 | 48.99621 | 2.59338 | 358 ft | 11 kts | 93° |
| 2026-05-05 13:57 | 48.99624 | 2.59448 | 359 ft | 10 kts | 86° |
| 2026-05-05 13:58 | 48.99630 | 2.59550 | 361 ft | 10 kts | 82° |
| 2026-05-05 13:58 | 48.99645 | 2.59644 | 360 ft | 9 kts | 58° |
| 2026-05-05 13:58 | 48.99693 | 2.59686 | 355 ft | 8 kts | 15° |
| 2026-05-05 13:58 | 48.99740 | 2.59686 | 356 ft | 6 kts | 338° |
| 2026-05-05 13:59 | 48.99882 | 2.59654 | 354 ft | 18 kts | 355° |
| 2026-05-05 13:59 | 49.00015 | 2.59640 | 356 ft | 20 kts | 356° |
| 2026-05-05 14:00 | 49.00294 | 2.59613 | 359 ft | 21 kts | 351° |
| 2026-05-05 14:00 | 49.00386 | 2.59597 | 361 ft | 20 kts | 354° |
| 2026-05-05 14:00 | 49.00568 | 2.59573 | 353 ft | 20 kts | 356° |
| 2026-05-05 14:00 | 49.00710 | 2.59560 | 356 ft | 21 kts | 357° |
| 2026-05-05 14:01 | 49.00808 | 2.59555 | 360 ft | 21 kts | 358° |
| 2026-05-05 14:01 | 49.00941 | 2.59541 | 355 ft | 18 kts | 347° |
| 2026-05-05 14:01 | 49.00991 | 2.59442 | 355 ft | 15 kts | 267° |
| 2026-05-05 14:01 | 49.00977 | 2.59272 | 355 ft | 17 kts | 274° |
| 2026-05-05 14:02 | 49.00988 | 2.59091 | 355 ft | 18 kts | 270° |
| 2026-05-05 14:02 | 49.00948 | 2.58912 | 362 ft | 18 kts | 253° |
| 2026-05-05 14:02 | 49.00943 | 2.58712 | 355 ft | 19 kts | 272° |
| 2026-05-05 14:02 | 49.00936 | 2.58507 | 355 ft | 20 kts | 266° |
| 2026-05-05 14:03 | 49.00907 | 2.58300 | 358 ft | 20 kts | 255° |
| 2026-05-05 14:03 | 49.00898 | 2.58105 | 355 ft | 20 kts | 274° |
| 2026-05-05 14:03 | 49.00900 | 2.57935 | 355 ft | 16 kts | 268° |
| 2026-05-05 14:03 | 49.00885 | 2.57772 | 357 ft | 15 kts | 245° |
| 2026-05-05 14:04 | 49.00788 | 2.57702 | 357 ft | 16 kts | 201° |
| 2026-05-05 14:04 | 49.00722 | 2.57668 | 353 ft | 3 kts | 180° |
| 2026-05-05 14:04 | 49.00699 | 2.57691 | 361 ft | 5 kts | 122° |
| 2026-05-05 14:04 | 49.00689 | 2.57720 | 353 ft | 0 kts | 118° |
| 2026-05-05 14:05 | 49.00672 | 2.57756 | 361 ft | 10 kts | 126° |
| 2026-05-05 14:05 | 49.00668 | 2.57765 | 361 ft | 0 kts | 124° |